Time;durP1;ratioP1;P1;durP2;ratioP2;P2;SDS_P1;SDS_P2;PMS_P1;PMS_P2;Temp;Humidity;BMP_temperature;BMP_pressure;BME280_temperature;BME280_humidity;BME280_pressure;Samples;Min_cycle;Max_cycle;Signal;HPM_P1;HPM_P2
2021/03/31 00:00:22;;;;;;;8.05;3.95;;;;;;;15.77;20.83;102132.72;5075247;28;20157;-83
2021/03/31 00:02:53;;;;;;;7.38;3.90;;;;;;;15.72;20.79;102142.44;5107450;28;20116;-83
2021/03/31 00:05:20;;;;;;;6.85;4.07;;;;;;;15.69;21.22;102139.91;5108769;27;20347;-83
2021/03/31 00:07:48;;;;;;;7.18;4.28;;;;;;;15.66;21.19;102135.53;5094597;28;20067;-83
2021/03/31 00:10:20;;;;;;;8.00;4.15;;;;;;;15.66;21.03;102138.28;5101118;28;20035;-83
2021/03/31 00:12:48;;;;;;;6.85;3.88;;;;;;;15.60;20.87;102135.19;5105799;28;20596;-83
2021/03/31 00:15:16;;;;;;;7.13;3.95;;;;;;;15.60;21.32;102130.53;5091692;28;20139;-83
2021/03/31 00:17:44;;;;;;;6.85;3.88;;;;;;;15.57;21.24;102129.91;5081138;28;20101;-83
2021/03/31 00:20:14;;;;;;;6.47;3.78;;;;;;;15.56;21.31;102123.53;5088681;28;20039;-83
2021/03/31 00:22:43;;;;;;;6.10;3.97;;;;;;;15.51;21.30;102109.28;5114464;28;20042;-83
2021/03/31 00:25:13;;;;;;;7.88;4.00;;;;;;;15.50;21.54;102110.28;5067958;28;20117;-83
2021/03/31 00:27:42;;;;;;;6.57;3.67;;;;;;;15.46;21.25;102110.69;5098507;27;20047;-83
2021/03/31 00:30:13;;;;;;;5.15;3.08;;;;;;;15.44;21.83;102105.31;5091326;28;20071;-84
2021/03/31 00:32:41;;;;;;;6.20;3.05;;;;;;;15.37;21.58;102102.22;5114238;28;20486;-84
2021/03/31 00:35:10;;;;;;;5.65;2.92;;;;;;;15.36;21.66;102099.59;5098924;28;20054;-83
2021/03/31 00:37:38;;;;;;;4.32;2.70;;;;;;;15.33;21.59;102108.13;5113011;28;20089;-83
2021/03/31 00:40:08;;;;;;;5.13;2.80;;;;;;;15.31;21.74;102099.97;5094589;28;20052;-82
2021/03/31 00:42:36;;;;;;;5.28;2.65;;;;;;;15.27;21.71;102100.38;5085999;28;20036;-83
2021/03/31 00:45:08;;;;;;;5.68;2.83;;;;;;;15.25;21.88;102102.41;5085113;28;20109;-83
2021/03/31 00:47:36;;;;;;;5.03;2.65;;;;;;;15.19;21.48;102095.53;5077874;28;20047;-83
2021/03/31 00:50:08;;;;;;;4.88;2.90;;;;;;;15.18;21.67;102091.03;5090959;28;20039;-83
2021/03/31 00:52:42;;;;;;;4.78;2.55;;;;;;;15.17;22.18;102086.53;5106890;28;20439;-83
2021/03/31 00:55:11;;;;;;;4.82;2.70;;;;;;;15.10;22.10;102078.91;5102855;28;20048;-83
2021/03/31 00:57:42;;;;;;;5.95;2.85;;;;;;;15.10;21.87;102073.41;5107007;28;20138;-83
2021/03/31 01:00:12;;;;;;;4.78;2.25;;;;;;;15.05;21.89;102076.56;5096568;28;20036;-83
2021/03/31 01:02:41;;;;;;;5.18;2.70;;;;;;;15.01;21.62;102067.69;5112549;28;20143;-83
2021/03/31 01:05:10;;;;;;;5.00;2.45;;;;;;;14.99;21.70;102063.31;5099108;28;20046;-83
2021/03/31 01:07:39;;;;;;;5.80;2.70;;;;;;;14.98;22.19;102062.44;5113540;28;20035;-83
2021/03/31 01:10:10;;;;;;;7.32;2.53;;;;;;;14.95;21.87;102059.06;5084186;28;20102;-83
2021/03/31 01:13:07;;;;;;;4.20;2.70;;;;;;;14.93;22.40;102061.09;5095169;28;20075;-83
2021/03/31 01:15:42;;;;;;;5.55;2.95;;;;;;;14.90;21.86;102053.94;5084220;28;20055;-83
2021/03/31 01:18:18;;;;;;;3.95;2.50;;;;;;;14.89;22.24;102049.47;5072902;28;20044;-83
2021/03/31 01:21:17;;;;;;;3.78;2.40;;;;;;;14.87;22.16;102053.34;5105193;28;20039;-83
2021/03/31 01:24:20;;;;;;;4.82;2.50;;;;;;;14.83;22.01;102046.34;5094190;28;20131;-83
2021/03/31 01:26:52;;;;;;;4.43;2.42;;;;;;;14.77;21.77;102036.72;5078392;28;20119;-83
2021/03/31 01:30:02;;;;;;;5.20;2.63;;;;;;;14.73;22.14;102042.63;5091789;28;20521;-83
2021/03/31 01:33:03;;;;;;;3.72;2.35;;;;;;;14.74;22.14;102044.34;4993607;28;20468;-83
2021/03/31 01:35:32;;;;;;;5.32;2.63;;;;;;;14.75;21.83;102037.81;5015446;28;20065;-83
2021/03/31 01:38:03;;;;;;;4.32;2.50;;;;;;;14.75;21.97;102037.81;5080640;28;20134;-83
2021/03/31 01:40:35;;;;;;;5.55;2.53;;;;;;;14.72;22.04;102036.22;5082152;28;20064;-83
2021/03/31 01:43:07;;;;;;;4.07;2.65;;;;;;;14.69;22.18;102031.84;5110257;28;20505;-83
2021/03/31 01:45:36;;;;;;;4.53;2.30;;;;;;;14.65;21.76;102033.09;5113245;27;20063;-83
2021/03/31 01:48:08;;;;;;;5.22;2.42;;;;;;;14.67;22.08;102032.97;5115895;28;20043;-84
2021/03/31 01:50:39;;;;;;;4.63;2.78;;;;;;;14.66;21.93;102025.72;5106784;28;20403;-83
2021/03/31 01:53:08;;;;;;;4.20;2.28;;;;;;;14.62;22.02;102022.38;5097797;28;20101;-83
2021/03/31 01:55:39;;;;;;;4.90;2.45;;;;;;;14.61;22.17;102020.59;5090312;28;20040;-84
2021/03/31 01:58:06;;;;;;;3.88;2.35;;;;;;;14.58;22.11;102020.84;5108343;28;20506;-84
2021/03/31 02:00:34;;;;;;;3.97;2.63;;;;;;;14.57;22.49;102018.25;5098990;28;20039;-83
2021/03/31 02:03:02;;;;;;;4.63;2.50;;;;;;;14.56;22.03;102017.38;5116941;28;20039;-83
2021/03/31 02:05:31;;;;;;;4.57;2.33;;;;;;;14.55;22.09;102023.00;5088234;28;20051;-83
2021/03/31 02:08:00;;;;;;;4.15;2.70;;;;;;;14.55;22.44;102023.00;5095738;28;20486;-83
2021/03/31 02:10:29;;;;;;;3.90;2.50;;;;;;;14.53;22.34;102006.63;5098625;28;20398;-83
2021/03/31 02:12:58;;;;;;;4.15;2.60;;;;;;;14.53;22.54;102019.50;5096498;28;20044;-83
2021/03/31 02:15:29;;;;;;;4.85;2.50;;;;;;;14.51;22.54;102011.38;5108974;28;20444;-83
2021/03/31 02:17:57;;;;;;;6.05;2.75;;;;;;;14.49;22.54;102005.13;5116105;28;20482;-82
2021/03/31 02:20:26;;;;;;;4.82;2.70;;;;;;;14.48;22.64;102013.53;5095996;28;20039;-83
2021/03/31 02:22:54;;;;;;;4.57;2.25;;;;;;;14.45;22.36;102009.16;5091067;28;20040;-83
2021/03/31 02:25:23;;;;;;;5.20;2.90;;;;;;;14.45;22.66;102016.53;5107844;28;20054;-83
2021/03/31 02:27:50;;;;;;;4.60;2.60;;;;;;;14.42;22.72;102008.53;5113745;28;20104;-83
2021/03/31 02:30:22;;;;;;;6.13;2.75;;;;;;;14.42;22.88;102009.41;5112901;28;20032;-82
2021/03/31 02:32:52;;;;;;;4.78;2.70;;;;;;;14.40;22.88;102008.69;5090679;28;20510;-82
2021/03/31 02:35:22;;;;;;;4.05;2.47;;;;;;;14.39;23.08;102008.81;5097897;28;20036;-83
2021/03/31 02:37:53;;;;;;;5.68;2.50;;;;;;;14.35;22.71;101999.03;5079701;28;20044;-83
2021/03/31 02:40:23;;;;;;;5.35;2.72;;;;;;;14.34;22.68;102002.78;5105418;28;20047;-83
2021/03/31 02:42:53;;;;;;;4.63;2.50;;;;;;;14.31;22.76;102001.19;5095756;28;20035;-82
2021/03/31 02:45:23;;;;;;;4.60;2.53;;;;;;;14.30;23.08;101996.69;5101800;28;20063;-83
2021/03/31 02:47:52;;;;;;;4.20;2.33;;;;;;;14.27;22.98;101994.19;5103770;28;20071;-83
2021/03/31 02:50:22;;;;;;;5.07;2.78;;;;;;;14.25;23.07;101993.44;5106357;27;20067;-83
2021/03/31 02:52:53;;;;;;;4.32;2.60;;;;;;;14.22;22.96;101996.47;5106631;28;20048;-83
2021/03/31 02:55:23;;;;;;;4.07;2.42;;;;;;;14.20;23.10;101981.94;5091114;28;20139;-83
2021/03/31 02:57:52;;;;;;;4.40;2.63;;;;;;;14.16;23.10;101986.81;5102643;28;20036;-83
2021/03/31 03:00:21;;;;;;;4.63;2.53;;;;;;;14.13;22.83;101984.34;5109553;28;20048;-83
2021/03/31 03:02:50;;;;;;;5.00;2.88;;;;;;;14.11;23.08;101982.72;5104226;28;20100;-83
2021/03/31 03:05:20;;;;;;;4.30;2.50;;;;;;;14.09;22.93;101984.72;5082366;28;20093;-83
2021/03/31 03:07:48;;;;;;;4.45;2.83;;;;;;;14.06;23.07;101979.47;5074977;28;20047;-83
2021/03/31 03:10:16;;;;;;;6.10;3.25;;;;;;;14.05;22.98;101985.97;5073953;28;20135;-84
2021/03/31 03:12:46;;;;;;;5.57;3.17;;;;;;;14.03;22.91;101980.59;5106658;28;20048;-84
2021/03/31 03:15:16;;;;;;;5.13;2.90;;;;;;;14.01;23.11;101976.22;5105539;28;20039;-84
2021/03/31 03:17:43;;;;;;;5.22;3.55;;;;;;;13.97;22.97;101975.63;5108783;28;20447;-84
2021/03/31 03:20:12;;;;;;;6.35;3.30;;;;;;;13.96;23.18;101971.13;5104799;28;20086;-84
2021/03/31 03:22:43;;;;;;;5.70;3.20;;;;;;;13.93;22.74;101983.25;5106698;28;20101;-84
2021/03/31 03:25:12;;;;;;;5.70;3.22;;;;;;;13.91;22.89;101976.97;5079805;27;20054;-84
2021/03/31 03:27:41;;;;;;;4.88;3.20;;;;;;;13.92;23.01;101980.59;5088841;28;20043;-84
2021/03/31 03:30:14;;;;;;;6.05;2.90;;;;;;;13.90;23.09;101969.75;5074448;28;20111;-83
2021/03/31 03:32:43;;;;;;;6.25;3.22;;;;;;;13.87;22.87;101956.25;5103384;28;20043;-83
2021/03/31 03:35:12;;;;;;;5.57;3.42;;;;;;;13.85;22.99;101962.84;5115173;28;20431;-84
2021/03/31 03:37:43;;;;;;;5.38;3.58;;;;;;;13.86;23.16;101967.34;5114840;28;20047;-83
2021/03/31 03:40:13;;;;;;;5.25;3.38;;;;;;;13.84;23.25;101958.34;5112611;28;20397;-84
2021/03/31 03:42:41;;;;;;;5.07;3.28;;;;;;;13.79;22.92;101955.97;5088135;28;20059;-84
2021/03/31 03:45:12;;;;;;;6.20;3.20;;;;;;;13.79;22.86;101949.59;5078139;28;20085;-84
2021/03/31 03:47:40;;;;;;;4.78;3.15;;;;;;;13.76;23.02;101956.22;5073743;28;20048;-84
2021/03/31 03:50:09;;;;;;;6.05;3.55;;;;;;;13.76;22.93;101960.84;5085062;28;20039;-83
2021/03/31 03:52:37;;;;;;;5.43;2.92;;;;;;;13.76;23.06;101969.09;5112895;28;20043;-83
2021/03/31 03:55:07;;;;;;;5.40;3.10;;;;;;;13.74;22.96;101966.50;5090514;28;20046;-83
2021/03/31 03:57:35;;;;;;;5.60;3.50;;;;;;;13.71;23.37;101969.50;5058172;28;20127;-83
2021/03/31 04:00:16;;;;;;;5.45;3.08;;;;;;;13.73;23.60;101974.88;5088439;28;20067;-83
2021/03/31 04:02:45;;;;;;;6.03;2.83;;;;;;;13.66;23.25;101970.88;5094947;28;20441;-83
2021/03/31 04:05:13;;;;;;;6.00;2.97;;;;;;;13.70;23.16;101972.34;5113193;28;20070;-82
2021/03/31 04:08:32;;;;;;;6.45;3.80;;;;;;;13.66;23.46;101973.63;5071715;28;20094;-82
2021/03/31 04:11:00;;;;;;;4.55;3.10;;;;;;;13.63;23.63;101968.38;5073017;28;20578;-82
2021/03/31 04:13:32;;;;;;;5.63;3.33;;;;;;;13.66;23.40;101970.88;5085205;28;20055;-82
2021/03/31 04:16:08;;;;;;;5.55;3.33;;;;;;;13.65;23.68;101975.50;5098440;28;20098;-83
2021/03/31 04:18:38;;;;;;;4.85;3.17;;;;;;;13.62;23.34;101972.97;5092102;28;20050;-82
2021/03/31 04:21:08;;;;;;;4.75;3.20;;;;;;;13.61;23.59;101970.34;5059080;28;20044;-83
2021/03/31 04:23:37;;;;;;;5.90;3.05;;;;;;;13.58;23.47;101968.75;5077252;28;20414;-83
2021/03/31 04:26:07;;;;;;;6.32;3.25;;;;;;;13.60;23.59;101965.84;5095485;28;20474;-84
2021/03/31 04:28:37;;;;;;;5.75;3.15;;;;;;;13.58;23.48;101963.25;5109650;28;20044;-84
2021/03/31 04:31:08;;;;;;;5.45;3.17;;;;;;;13.58;23.71;101956.88;5079388;28;20044;-84
2021/03/31 04:33:36;;;;;;;6.03;3.25;;;;;;;13.54;23.76;101956.25;5099355;28;20153;-83
2021/03/31 04:36:04;;;;;;;5.50;3.40;;;;;;;13.52;23.57;101950.84;5088115;28;20503;-83
2021/03/31 04:38:32;;;;;;;6.43;3.60;;;;;;;13.49;23.58;101945.63;5086900;27;20035;-84
2021/03/31 04:41:01;;;;;;;5.50;3.45;;;;;;;13.49;23.73;101950.25;5100898;28;20502;-86
2021/03/31 04:43:30;;;;;;;6.03;3.83;;;;;;;13.49;23.81;101953.00;5079245;28;20050;-85
2021/03/31 04:46:01;;;;;;;5.03;3.10;;;;;;;13.45;24.01;101951.50;5095905;28;20063;-85
2021/03/31 04:48:30;;;;;;;6.13;3.22;;;;;;;13.45;23.93;101946.00;5111751;28;20028;-84
2021/03/31 04:50:58;;;;;;;5.90;3.38;;;;;;;13.42;23.82;101948.97;5113075;28;20035;-82
2021/03/31 04:53:26;;;;;;;6.05;3.00;;;;;;;13.38;24.04;101944.75;5084612;28;20036;-82
2021/03/31 04:55:53;;;;;;;5.20;3.10;;;;;;;13.37;23.95;101952.13;5089971;28;20114;-81
2021/03/31 04:58:21;;;;;;;6.00;3.20;;;;;;;13.35;24.12;101950.47;5093610;28;20490;-84
2021/03/31 05:00:49;;;;;;;4.95;3.28;;;;;;;13.31;24.10;101949.00;5097934;28;20376;-83
2021/03/31 05:03:20;;;;;;;6.55;3.65;;;;;;;13.31;24.38;101951.75;5114300;28;20047;-85
2021/03/31 05:05:48;;;;;;;5.22;3.05;;;;;;;13.27;24.11;101941.97;5077717;28;20047;-85
2021/03/31 05:08:16;;;;;;;6.18;3.58;;;;;;;13.24;24.40;101943.13;5077083;28;20043;-84
2021/03/31 05:10:43;;;;;;;6.00;3.45;;;;;;;13.22;24.46;101941.50;5104420;28;20102;-84
2021/03/31 05:13:11;;;;;;;4.95;3.13;;;;;;;13.21;24.23;101946.09;5086873;28;20113;-84
2021/03/31 05:15:38;;;;;;;7.25;3.30;;;;;;;13.18;24.47;101932.59;5078926;28;20052;-84
2021/03/31 05:18:06;;;;;;;8.27;3.63;;;;;;;13.17;24.39;101942.72;5079312;28;20043;-83
2021/03/31 05:20:35;;;;;;;7.00;3.67;;;;;;;13.15;24.34;101942.00;5075108;28;20115;-82
2021/03/31 05:23:03;;;;;;;5.72;3.53;;;;;;;13.14;24.31;101931.13;5102061;28;20058;-82
2021/03/31 05:25:31;;;;;;;6.25;3.25;;;;;;;13.11;24.38;101934.09;5080745;28;20050;-82
2021/03/31 05:28:01;;;;;;;5.22;3.38;;;;;;;13.10;24.48;101938.72;5104056;28;20032;-83
2021/03/31 05:30:29;;;;;;;7.25;3.60;;;;;;;13.07;24.49;101936.22;5100421;28;20078;-83
2021/03/31 05:32:57;;;;;;;5.72;3.17;;;;;;;13.06;24.42;101930.84;5108940;28;20043;-82
2021/03/31 05:35:24;;;;;;;6.20;3.33;;;;;;;13.04;24.49;101935.59;5078902;28;20109;-83
2021/03/31 05:37:52;;;;;;;6.80;3.45;;;;;;;13.02;24.62;101941.19;5107406;28;20123;-81
2021/03/31 05:40:22;;;;;;;6.20;3.55;;;;;;;13.01;24.63;101933.06;5118789;28;20051;-82
2021/03/31 05:42:49;;;;;;;6.40;3.50;;;;;;;12.99;24.80;101935.97;5113681;28;20066;-82
2021/03/31 05:45:17;;;;;;;6.30;3.53;;;;;;;12.98;24.64;101936.09;5111576;28;20119;-82
2021/03/31 05:47:45;;;;;;;6.30;3.33;;;;;;;12.96;24.67;101933.47;5077640;28;20068;-81
2021/03/31 05:50:15;;;;;;;6.72;3.20;;;;;;;12.97;25.07;101940.72;5111684;28;20031;-82
2021/03/31 05:52:45;;;;;;;6.07;3.10;;;;;;;12.97;24.99;101934.34;5105692;28;20040;-81
2021/03/31 05:55:16;;;;;;;6.95;3.83;;;;;;;12.95;24.99;101934.44;5097992;28;20040;-81
2021/03/31 05:57:45;;;;;;;5.80;3.40;;;;;;;12.97;25.10;101934.34;5109793;28;20036;-78
2021/03/31 06:00:15;;;;;;;7.40;3.28;;;;;;;12.96;25.04;101938.06;5103874;28;20043;-78
2021/03/31 06:02:44;;;;;;;5.95;3.35;;;;;;;12.95;25.07;101942.69;5101197;28;20719;-77
2021/03/31 06:05:13;;;;;;;5.78;3.72;;;;;;;12.95;25.03;101939.94;5110024;27;20066;-78
2021/03/31 06:07:41;;;;;;;6.32;3.63;;;;;;;12.95;24.99;101941.81;5080417;28;20498;-78
2021/03/31 06:10:14;;;;;;;7.32;3.60;;;;;;;12.97;25.38;101943.44;5117444;27;20039;-77
2021/03/31 06:12:44;;;;;;;7.68;3.53;;;;;;;12.94;25.35;101943.69;5090846;28;20423;-77
2021/03/31 06:15:21;;;;;;;7.80;3.75;;;;;;;12.97;25.62;101943.44;5112177;27;20042;-78
2021/03/31 06:17:52;;;;;;;5.40;3.55;;;;;;;12.97;25.15;101931.59;5101661;28;20089;-79
2021/03/31 06:20:57;;;;;;;6.20;3.72;;;;;;;12.93;25.57;101936.44;5114935;28;20039;-78
2021/03/31 06:23:50;;;;;;;7.00;3.63;;;;;;;12.99;25.35;101944.22;5025780;28;20429;-78
2021/03/31 06:26:26;;;;;;;6.60;3.30;;;;;;;12.97;25.43;101946.19;5115441;28;20059;-79
2021/03/31 06:29:05;;;;;;;7.03;3.63;;;;;;;13.03;25.40;101944.81;5093634;28;20039;-77
2021/03/31 06:31:53;;;;;;;6.82;3.15;;;;;;;13.02;25.30;101941.19;5094398;28;20051;-78
2021/03/31 06:34:23;;;;;;;5.38;3.28;;;;;;;13.07;25.14;101940.84;5102467;28;20044;-78
2021/03/31 06:36:57;;;;;;;5.68;3.33;;;;;;;13.08;25.27;101934.38;5115271;28;20048;-77
2021/03/31 06:39:31;;;;;;;6.63;3.42;;;;;;;13.12;25.29;101938.59;5113303;28;20461;-77
2021/03/31 06:42:00;;;;;;;6.65;3.38;;;;;;;13.14;25.29;101942.09;5116177;27;20173;-80
2021/03/31 06:44:51;;;;;;;5.45;2.80;;;;;;;13.22;25.44;101938.75;5116829;27;20035;-79
2021/03/31 06:47:24;;;;;;;5.70;3.05;;;;;;;13.24;25.08;101934.88;5107399;28;20039;-77
2021/03/31 06:49:53;;;;;;;7.23;2.90;;;;;;;13.28;25.41;101936.38;5095554;28;20067;-76
2021/03/31 06:52:21;;;;;;;5.80;3.00;;;;;;;13.36;25.45;101933.00;5099176;28;20051;-76
2021/03/31 06:54:51;;;;;;;6.45;3.17;;;;;;;13.45;25.48;101935.88;5115231;27;20042;-80
2021/03/31 06:57:27;;;;;;;6.68;3.20;;;;;;;13.59;25.48;101936.59;5089358;28;20035;-78
2021/03/31 07:00:08;;;;;;;7.38;3.28;;;;;;;13.70;25.62;101931.09;5094550;28;20039;-83
2021/03/31 07:02:38;;;;;;;7.10;3.40;;;;;;;13.81;25.54;101926.47;5099348;28;20044;-80
2021/03/31 07:05:09;;;;;;;4.90;2.90;;;;;;;13.98;25.49;101930.59;5073075;28;20131;-79
2021/03/31 07:07:38;;;;;;;5.78;3.28;;;;;;;14.15;25.36;101930.06;5119165;28;20077;-80
2021/03/31 07:10:08;;;;;;;5.82;3.17;;;;;;;14.32;25.40;101921.22;5114090;28;20406;-80
2021/03/31 07:12:41;;;;;;;5.97;2.90;;;;;;;14.54;25.48;101916.63;5104557;28;20074;-81
2021/03/31 07:15:12;;;;;;;8.18;3.33;;;;;;;14.72;25.56;101917.78;5079705;28;20064;-81
2021/03/31 07:17:45;;;;;;;8.35;3.45;;;;;;;14.96;25.71;101917.56;5095434;28;20032;-81
2021/03/31 07:20:13;;;;;;;;;;;;;;;14.84;25.79;101911.22;5106368;28;20562;-81
2021/03/31 07:22:40;;;;;;;5.63;2.50;;;;;;;15.34;25.48;101915.00;5102123;28;19920;-80
2021/03/31 07:25:09;;;;;;;6.38;2.90;;;;;;;15.67;25.16;101915.75;5107442;27;20058;-81
2021/03/31 07:27:40;;;;;;;5.22;2.88;;;;;;;15.93;24.80;101908.69;5111125;28;20040;-80
2021/03/31 07:30:10;;;;;;;4.82;2.88;;;;;;;16.19;24.45;101909.03;5090194;28;20080;-83
2021/03/31 07:32:45;;;;;;;6.88;3.10;;;;;;;16.45;24.24;101906.59;5098142;28;20039;-81
2021/03/31 07:35:13;;;;;;;5.38;3.15;;;;;;;16.65;23.92;101905.56;5100003;28;20043;-83
2021/03/31 07:37:41;;;;;;;6.25;3.55;;;;;;;16.87;23.78;101910.81;5111578;28;20138;-81
2021/03/31 07:40:11;;;;;;;6.93;3.20;;;;;;;17.09;23.70;101897.66;5111712;28;20225;-81
2021/03/31 07:42:44;;;;;;;6.03;3.53;;;;;;;17.28;23.10;101903.16;5103585;28;20051;-83
2021/03/31 07:45:16;;;;;;;6.50;3.25;;;;;;;17.44;23.00;101897.84;5109454;28;20097;-81
2021/03/31 07:47:47;;;;;;;7.43;3.42;;;;;;;17.57;21.97;101903.88;5068720;28;20082;-80
2021/03/31 07:50:15;;;;;;;5.68;3.28;;;;;;;17.71;22.56;101899.72;5110694;28;20179;-80
2021/03/31 07:53:06;;;;;;;6.03;3.53;;;;;;;17.80;21.58;101896.03;5097227;28;20046;-81
2021/03/31 07:55:40;;;;;;;6.40;3.88;;;;;;;17.91;21.36;101894.97;5087178;28;20379;-82
2021/03/31 07:58:24;;;;;;;7.05;3.17;;;;;;;17.98;21.12;101898.84;5107732;28;20127;-83
2021/03/31 08:01:12;;;;;;;7.65;3.10;;;;;;;18.00;20.86;101894.91;5111669;28;20136;-82
2021/03/31 08:03:43;;;;;;;7.10;3.72;;;;;;;18.06;21.29;101896.22;5111663;28;20124;-82
2021/03/31 08:06:16;;;;;;;9.05;3.85;;;;;;;18.11;20.72;101902.16;5082019;28;20083;-82
2021/03/31 08:09:05;;;;;;;7.07;3.50;;;;;;;18.10;20.70;101900.41;5109696;28;20130;-82
2021/03/31 08:12:01;;;;;;;5.82;3.30;;;;;;;18.16;20.87;101899.78;5107955;28;20126;-81
2021/03/31 08:14:49;;;;;;;7.85;3.75;;;;;;;18.17;20.57;101907.06;5104670;28;20054;-81
2021/03/31 08:17:32;;;;;;;5.93;3.17;;;;;;;18.16;21.01;101893.38;5112475;28;20093;-81
2021/03/31 08:20:01;;;;;;;7.05;4.00;;;;;;;18.21;21.03;101902.94;5094616;28;20062;-82
2021/03/31 08:22:38;;;;;;;6.88;3.90;;;;;;;18.23;20.69;101900.88;5113162;28;20137;-80
2021/03/31 08:25:17;;;;;;;7.82;4.28;;;;;;;18.27;20.18;101904.22;5092526;28;20039;-80
2021/03/31 08:28:04;;;;;;;7.28;4.22;;;;;;;18.27;20.08;101901.47;5112938;28;20038;-81
2021/03/31 08:30:34;;;;;;;8.32;4.13;;;;;;;18.27;20.56;101907.88;5111213;28;20051;-79
2021/03/31 08:33:02;;;;;;;7.28;4.13;;;;;;;18.28;20.75;101901.28;5111613;28;20055;-81
2021/03/31 08:35:32;;;;;;;7.18;4.07;;;;;;;18.33;20.78;101903.59;5076823;28;20489;-80
2021/03/31 08:37:59;;;;;;;6.82;4.00;;;;;;;18.33;20.86;101904.47;5104407;28;20036;-80
2021/03/31 08:40:32;;;;;;;8.00;4.30;;;;;;;18.39;20.15;101898.28;5111779;28;20413;-80
2021/03/31 08:43:04;;;;;;;7.22;3.92;;;;;;;18.41;20.87;101898.13;5112814;28;20563;-79
2021/03/31 08:45:34;;;;;;;7.40;3.95;;;;;;;18.45;20.70;101897.63;5112580;28;20398;-79
2021/03/31 08:48:02;;;;;;;7.13;3.85;;;;;;;18.48;20.63;101893.69;5111196;28;20494;-79
2021/03/31 08:50:36;;;;;;;7.65;4.03;;;;;;;18.55;20.90;101896.69;5111416;28;20094;-80
2021/03/31 08:53:06;;;;;;;7.82;4.47;;;;;;;18.59;20.33;101893.44;5105208;28;20056;-80
2021/03/31 08:55:37;;;;;;;7.93;4.28;;;;;;;18.65;20.81;101890.03;5077403;28;20097;-80
2021/03/31 08:58:07;;;;;;;5.93;3.97;;;;;;;18.70;20.50;101884.88;5113103;28;20039;-80
2021/03/31 09:00:46;;;;;;;7.25;4.03;;;;;;;18.78;20.21;101882.19;5105377;28;20071;-80
2021/03/31 09:03:14;;;;;;;8.48;4.45;;;;;;;18.82;20.46;101888.28;5099321;28;20058;-80
2021/03/31 09:06:01;;;;;;;7.22;4.40;;;;;;;18.90;20.35;101876.38;5111693;28;20043;-80
2021/03/31 09:08:30;;;;;;;7.63;4.25;;;;;;;18.95;20.42;101876.75;5112454;28;20035;-81
2021/03/31 09:11:00;;;;;;;9.02;4.32;;;;;;;19.05;20.21;101878.41;5110624;28;20094;-79
2021/03/31 09:13:31;;;;;;;8.07;4.20;;;;;;;19.13;20.07;101875.69;5110863;28;20063;-80
2021/03/31 09:16:01;;;;;;;6.80;4.30;;;;;;;19.22;20.72;101872.97;5111413;28;20044;-80
2021/03/31 09:18:30;;;;;;;9.15;4.97;;;;;;;19.30;20.57;101867.44;5096218;28;20027;-80
2021/03/31 09:20:57;;;;;;;8.07;3.92;;;;;;;19.40;20.48;101874.63;5070431;28;20040;-80
2021/03/31 09:23:26;;;;;;;7.85;4.22;;;;;;;19.50;20.20;101869.84;5109330;28;20498;-80
2021/03/31 09:25:59;;;;;;;8.23;4.50;;;;;;;19.61;19.89;101860.34;5101288;28;20050;-81
2021/03/31 09:28:27;;;;;;;7.15;4.50;;;;;;;19.70;20.46;101861.25;5127973;28;20032;-81
2021/03/31 09:31:01;;;;;;;8.00;4.15;;;;;;;19.80;20.22;101864.75;5112050;28;20048;-82
2021/03/31 09:33:32;;;;;;;7.68;4.40;;;;;;;19.89;19.89;101860.97;5099120;28;20044;-83
2021/03/31 09:36:13;;;;;;;;;;;;;;;19.68;19.94;101858.63;5094864;28;20083;-82
2021/03/31 09:38:44;;;;;;;7.88;4.03;;;;;;;20.05;19.80;101863.78;5114120;28;20252;-82
2021/03/31 09:41:17;;;;;;;8.48;4.38;;;;;;;20.16;19.81;101854.25;5107925;28;20039;-83
2021/03/31 09:43:48;;;;;;;6.68;3.95;;;;;;;20.29;19.02;101857.41;5116267;28;20123;-82
2021/03/31 09:46:21;;;;;;;6.85;4.43;;;;;;;20.36;19.11;101849.25;5116272;28;20397;-82
2021/03/31 09:48:53;;;;;;;7.32;4.45;;;;;;;20.45;19.42;101862.13;5115860;28;20092;-81
2021/03/31 09:51:21;;;;;;;8.57;4.35;;;;;;;20.53;19.03;101849.09;5115050;28;20036;-81
2021/03/31 09:53:52;;;;;;;7.43;4.65;;;;;;;20.64;19.29;101845.97;5113345;28;20506;-82
2021/03/31 09:56:21;;;;;;;8.73;4.63;;;;;;;20.75;19.14;101833.59;5106671;28;20038;-81
2021/03/31 09:58:52;;;;;;;6.70;3.88;;;;;;;20.86;19.00;101832.38;5099150;28;20122;-81
2021/03/31 10:01:22;;;;;;;8.53;4.13;;;;;;;20.94;19.21;101833.25;5107172;28;20046;-81
2021/03/31 10:03:52;;;;;;;7.90;4.57;;;;;;;21.06;18.94;101828.22;5115646;28;20288;-81
2021/03/31 10:06:22;;;;;;;8.98;5.03;;;;;;;21.17;18.67;101829.72;5106432;28;20522;-81
2021/03/31 10:08:51;;;;;;;11.10;6.45;;;;;;;21.27;18.58;101828.47;5110134;28;20110;-81
2021/03/31 10:11:35;;;;;;;9.90;5.90;;;;;;;21.39;17.99;101824.25;5107059;28;20032;-81
2021/03/31 10:14:05;;;;;;;7.90;4.53;;;;;;;21.49;18.14;101825.97;5086438;28;20105;-81
2021/03/31 10:16:37;;;;;;;8.45;4.60;;;;;;;21.62;18.56;101826.28;5104386;28;20051;-80
2021/03/31 10:19:07;;;;;;;8.35;4.60;;;;;;;21.72;18.49;101822.22;5103451;27;20472;-81
2021/03/31 10:21:37;;;;;;;7.78;4.65;;;;;;;21.83;18.31;101818.13;5115416;28;20406;-81
2021/03/31 10:24:07;;;;;;;7.85;4.32;;;;;;;21.97;18.05;101813.72;5102895;28;20051;-81
2021/03/31 10:26:49;;;;;;;7.10;4.43;;;;;;;22.08;18.07;101816.06;5099340;28;20062;-80
2021/03/31 10:29:45;;;;;;;6.22;4.13;;;;;;;22.22;17.56;101814.44;5083031;28;20555;-80
2021/03/31 10:32:32;;;;;;;6.40;4.20;;;;;;;22.33;18.18;101808.41;5115750;28;20563;-80
2021/03/31 10:35:00;;;;;;;6.55;4.20;;;;;;;22.45;18.10;101807.78;5114928;28;20044;-80
2021/03/31 10:37:34;;;;;;;6.80;4.18;;;;;;;22.60;17.87;101810.59;5115179;28;20040;-80
2021/03/31 10:40:30;;;;;;;7.03;3.90;;;;;;;22.74;17.60;101797.75;5091327;28;20457;-80
2021/03/31 10:49:05;;;;;;;6.82;3.83;;;;;;;23.13;17.41;101792.81;5096094;28;20434;-80
2021/03/31 10:51:41;;;;;;;5.35;3.22;;;;;;;23.27;17.17;101796.66;5102667;28;20142;-81
2021/03/31 10:54:15;;;;;;;8.95;3.85;;;;;;;23.42;17.31;101782.66;5082274;28;20043;-80
2021/03/31 10:56:51;;;;;;;6.88;3.47;;;;;;;23.54;16.46;101779.22;5106190;28;20502;-80
2021/03/31 10:59:18;;;;;;;4.82;3.10;;;;;;;23.64;16.52;101788.13;5098911;28;20141;-81
2021/03/31 11:01:45;;;;;;;6.03;3.15;;;;;;;23.77;16.57;101781.00;5112250;28;20082;-80
2021/03/31 11:04:12;;;;;;;7.45;3.90;;;;;;;23.89;16.67;101782.19;5088185;28;20101;-80
2021/03/31 11:06:39;;;;;;;5.60;3.35;;;;;;;23.99;16.23;101774.34;5114390;28;20044;-81
2021/03/31 11:09:07;;;;;;;6.70;3.38;;;;;;;24.09;16.09;101777.72;5090008;28;20040;-81
2021/03/31 11:11:43;;;;;;;6.10;3.67;;;;;;;24.22;15.42;101774.19;5090268;28;20048;-89
2021/03/31 11:14:12;;;;;;;5.35;3.10;;;;;;;24.26;15.91;101773.59;5081158;28;20052;-87
2021/03/31 11:16:49;;;;;;;6.35;3.25;;;;;;;24.37;15.98;101767.44;5116158;27;20478;-83
2021/03/31 11:19:30;;;;;;;5.18;2.95;;;;;;;24.46;15.52;101770.94;5104584;28;20051;-83
2021/03/31 11:27:27;;;;;;;5.00;3.15;;;;;;;24.74;15.37;101751.41;5092390;28;20514;-81
2021/03/31 11:29:54;;;;;;;4.85;3.00;;;;;;;24.79;15.49;101755.31;5086222;28;20047;-78
2021/03/31 11:32:21;;;;;;;5.72;3.58;;;;;;;24.88;15.01;101746.75;5112016;28;20045;-78
2021/03/31 11:34:49;;;;;;;6.47;3.17;;;;;;;24.94;15.17;101744.03;5111730;28;20067;-79
2021/03/31 11:37:16;;;;;;;5.15;3.20;;;;;;;25.01;15.10;101735.66;5090091;28;20035;-79
2021/03/31 11:39:45;;;;;;;6.30;3.42;;;;;;;25.08;14.94;101731.81;5095190;28;20039;-80
2021/03/31 11:42:13;;;;;;;6.70;3.20;;;;;;;25.14;15.26;101728.19;5099971;28;20051;-84
2021/03/31 11:44:41;;;;;;;5.50;3.03;;;;;;;25.23;15.25;101726.06;5113649;28;20104;-84
2021/03/31 11:47:10;;;;;;;6.43;3.15;;;;;;;25.32;14.74;101724.84;5099521;28;20036;-79
2021/03/31 11:49:38;;;;;;;5.00;2.42;;;;;;;25.36;14.89;101717.75;5105695;28;20047;-80
2021/03/31 11:52:06;;;;;;;4.70;2.80;;;;;;;25.44;14.56;101708.31;5104373;27;20045;-79
2021/03/31 11:54:33;;;;;;;4.43;2.42;;;;;;;25.51;14.65;101709.19;5110914;28;20104;-79
2021/03/31 11:57:01;;;;;;;5.05;2.28;;;;;;;25.56;14.96;101709.41;5111771;28;20529;-80
2021/03/31 11:59:29;;;;;;;4.55;2.50;;;;;;;25.62;14.57;101699.28;5108718;27;20031;-79